METAR Data
IDs: Format: Raw Decoded Include TAF

Data at: 1159 UTC 23 Sep 2018

KHFJ 231130Z AUTO 07005KT 7SM OVC006 15/15 A3005 RMK AO2
KHFJ 231110Z AUTO 08006KT 7SM OVC006 15/15 A3005 RMK AO2
KHFJ 231050Z AUTO 07004KT 10SM OVC006 16/16 A3005 RMK AO2
KHFJ 231030Z AUTO 07004KT 10SM OVC008 16/16 A3005 RMK AO2
KHFJ 231010Z AUTO 06003KT 10SM OVC008 16/15 A3005 RMK AO2
KHFJ 230950Z AUTO 09005KT 10SM OVC008 16/15 A3005 RMK AO2
KHFJ 230930Z AUTO 08004KT 10SM OVC008 16/15 A3005 RMK AO2
KHFJ 230910Z AUTO 08004KT 10SM OVC008 15/15 A3005 RMK AO2
KHFJ 230850Z AUTO 08004KT 10SM OVC008 16/16 A3005 RMK AO2
KHFJ 230830Z AUTO 08004KT 10SM BKN010 OVC013 16/16 A3006 RMK AO2
KHFJ 230810Z AUTO 10004KT 10SM OVC010 16/16 A3006 RMK AO2
KHFJ 230750Z AUTO 09004KT 10SM OVC010 16/16 A3006 RMK AO2
KHFJ 230730Z AUTO 09005KT 10SM OVC010 16/16 A3007 RMK AO2
KHFJ 230710Z AUTO 10003KT 10SM OVC010 16/16 A3007 RMK AO2
KHFJ 230650Z AUTO 08006KT 10SM OVC010 16/16 A3007 RMK AO2
KHFJ 230630Z AUTO 08005KT 10SM OVC010 16/16 A3007 RMK AO2
KHFJ 230610Z AUTO 08005KT 10SM OVC012 16/16 A3007 RMK AO2
KHFJ 230550Z AUTO 08004KT 10SM OVC012 16/16 A3007 RMK AO2
KHFJ 230530Z AUTO 09003KT 10SM BKN012 OVC021 16/16 A3008 RMK AO2
KHFJ 230510Z AUTO 08005KT 10SM OVC021 16/15 A3008 RMK AO2
KHFJ 230450Z AUTO 08006KT 10SM OVC021 16/15 A3008 RMK AO2
KHFJ 230430Z AUTO 07007KT 10SM OVC021 16/16 A3008 RMK AO2
KHFJ 230410Z AUTO 07005KT 10SM SCT015 OVC021 16/16 A3009 RMK AO2
KHFJ 230350Z AUTO 06004KT 10SM OVC015 16/16 A3009 RMK AO2
KHFJ 230330Z AUTO 07005KT 10SM OVC017 16/16 A3010 RMK AO2
KHFJ 230310Z AUTO 06007KT 10SM OVC019 16/16 A3009 RMK AO2
KHFJ 230250Z AUTO 07003KT 10SM SCT015 OVC021 16/16 A3010 RMK AO2
KHFJ 230230Z AUTO 00000KT 10SM SCT015 SCT021 15/15 A3010 RMK AO2
KHFJ 230210Z AUTO 08004KT 10SM SCT019 16/16 A3010 RMK AO2
KHFJ 230150Z AUTO 09003KT 10SM SCT017 16/16 A3010 RMK AO2
KHFJ 230130Z AUTO 00000KT 10SM CLR 16/16 A3009 RMK AO2
KHFJ 230110Z AUTO 00000KT 10SM CLR 16/16 A3009 RMK AO2
KHFJ 230050Z AUTO 06003KT 10SM SCT025 17/16 A3009 RMK AO2
KHFJ 230030Z AUTO 07003KT 10SM BKN025 17/16 A3009 RMK AO2
KHFJ 230010Z AUTO 08003KT 10SM OVC027 17/16 A3009 RMK AO2
KHFJ 222350Z AUTO 07003KT 10SM OVC027 18/16 A3009 RMK AO2
KHFJ 222330Z AUTO 08004KT 10SM SCT027 18/16 A3009 RMK AO2
KHFJ 222310Z AUTO 06005KT 10SM SCT020 18/16 A3009 RMK AO2
KHFJ 222250Z AUTO 07008KT 10SM OVC020 18/16 A3008 RMK AO2
KHFJ 222230Z AUTO 07003KT 10SM OVC018 18/15 A3012 RMK AO2
KHFJ 222210Z AUTO 06005KT 10SM OVC018 18/16 A3010 RMK AO2
KHFJ 222150Z AUTO 07007KT 10SM OVC018 18/16 A3010 RMK AO2
KHFJ 222130Z AUTO 06006KT 10SM OVC018 18/16 A3009 RMK AO2
KHFJ 222110Z AUTO 07007KT 10SM OVC018 18/16 A3012 RMK AO2
KHFJ 222050Z AUTO 05006KT 10SM OVC018 18/16 A3012 RMK AO2
KHFJ 222030Z AUTO 07006KT 10SM OVC018 18/16 A3012 RMK AO2
KHFJ 222010Z AUTO 05007KT 10SM OVC020 19/16 A3012 RMK AO2
KHFJ 221950Z AUTO 07006KT 10SM OVC020 18/15 A3013 RMK AO2
KHFJ 221930Z AUTO 06006KT 10SM OVC020 19/15 A3014 RMK AO2
KHFJ 221910Z AUTO 09005KT 10SM OVC020 18/15 A3015 RMK AO2
KHFJ 221850Z AUTO 08006KT 10SM OVC020 18/15 A3015 RMK AO2
KHFJ 221830Z AUTO 07007KT 10SM OVC020 18/15 A3016 RMK AO2
KHFJ 221810Z AUTO 08006KT 10SM OVC020 18/15 A3017 RMK AO2
KHFJ 221750Z AUTO 06007KT 10SM OVC020 18/15 A3017 RMK AO2
KHFJ 221730Z AUTO 09008KT 10SM BKN018 OVC028 18/15 A3018 RMK AO2
KHFJ 221710Z AUTO 07011KT 10SM OVC018 18/15 A3018 RMK AO2
KHFJ 221650Z AUTO 08009KT 10SM BKN018 OVC029 17/15 A3019 RMK AO2
KHFJ 221630Z AUTO 07010KT 10SM BKN016 OVC029 17/15 A3019 RMK AO2
KHFJ 221610Z AUTO 07007KT 10SM BKN016 OVC029 17/15 A3019 RMK AO2
KHFJ 221550Z AUTO 08009KT 10SM BKN016 OVC029 17/14 A3019 RMK AO2
KHFJ 221530Z AUTO 08010KT 10SM SCT016 BKN029 17/14 A3019 RMK AO2
KHFJ 221510Z AUTO 07011KT 10SM OVC014 17/14 A3019 RMK AO2
KHFJ 221450Z AUTO 09008KT 10SM BKN014 16/14 A3019 RMK AO2
KHFJ 221430Z AUTO 08007KT 10SM BKN012 16/14 A3019 RMK AO2
KHFJ 221410Z AUTO 08010G17KT 10SM OVC012 15/13 A3019 RMK AO2
KHFJ 221350Z AUTO 07007KT 10SM BKN010 OVC070 15/14 A3019 RMK AO2
KHFJ 221330Z AUTO 07005KT 10SM OVC010 14/13 A3019 RMK AO2
KHFJ 221310Z AUTO 06005KT 10SM OVC010 14/13 A3019 RMK AO2
KHFJ 221250Z AUTO 07005KT 10SM OVC010 14/13 A3019 RMK AO2
KHFJ 221230Z AUTO 05006KT 10SM BKN010 OVC055 13/13 A3019 RMK AO2
KHFJ 221210Z AUTO 06005KT 10SM SCT010 SCT044 BKN055 14/13 A3018 RMK AO2
KHFJ 221150Z AUTO 11010KT 10SM SCT035 BKN043 OVC055 14/13 A3017 RMK AO2
KHFJ 221130Z AUTO 10011G15KT 10SM OVC033 14/13 A3018 RMK AO2
KHFJ 221110Z AUTO 09009G14KT 10SM OVC031 13/13 A3018 RMK AO2
KHFJ 221050Z AUTO 07009KT 10SM BKN027 OVC034 13/13 A3019 RMK AO2 P0001
KHFJ 221030Z AUTO 04009KT 10SM -DZ SCT010 OVC027 13/13 A3019 RMK AO2 P0001
KHFJ 221010Z AUTO 06009KT 10SM -RA OVC027 13/13 A3019 RMK AO2 P0001
KHFJ 220950Z AUTO 06011G16KT 10SM -RA OVC027 13/13 A3018 RMK AO2 P0004
KHFJ 220930Z AUTO 06010G16KT 10SM -RA OVC031 13/13 A3018 RMK AO2 P0003
KHFJ 220910Z AUTO 05010KT 10SM -RA SCT010 OVC035 13/13 A3018 RMK AO2 P0001
KHFJ 220850Z AUTO 05009G14KT 10SM -RA SCT013 BKN035 OVC100 13/13 A3018 RMK AO2 P0003
KHFJ 220830Z AUTO 05009G16KT 10SM RA BKN013 OVC017 13/13 A3018 RMK AO2 P0002
KHFJ 220810Z AUTO 04008KT 10SM -RA BKN013 BKN037 OVC060 14/14 A3018 RMK AO2 P0001
KHFJ 220750Z AUTO 04010KT 10SM -RA SCT015 SCT055 BKN070 14/14 A3019 RMK AO2 P0002
KHFJ 220730Z AUTO 04010G16KT 10SM RA SCT065 14/14 A3019 RMK AO2 LTG DSNT SW P0001
KHFJ 220710Z AUTO 05009KT 10SM -RA SCT065 SCT075 15/14 A3018 RMK AO2
KHFJ 220650Z AUTO 05011G15KT 10SM -RA CLR 15/14 A3019 RMK AO2 P0003
KHFJ 220630Z AUTO 06007KT 10SM RA SCT120 15/15 A3019 RMK AO2 P0002
KHFJ 220610Z AUTO 07008KT 10SM -RA SCT110 15/15 A3019 RMK AO2 P0001
KHFJ 220550Z AUTO 05009G14KT 10SM DZ SCT110 15/14 A3019 RMK AO2 P0002
KHFJ 220530Z AUTO 05009G15KT 10SM -RA BKN120 15/14 A3019 RMK AO2 P0001
KHFJ 220510Z AUTO 03012KT 10SM -RA BKN120 15/14 A3019 RMK AO2
KHFJ 220450Z AUTO 03011G16KT 10SM RA BKN120 15/14 A3019 RMK AO2 P0001
KHFJ 220430Z AUTO 03007KT 10SM RA BKN120 16/14 A3020 RMK AO2
KHFJ 220410Z AUTO 02006KT 10SM DZ BKN120 16/14 A3020 RMK AO2
KHFJ 220350Z AUTO 02005KT 10SM -RA BKN110 16/14 A3020 RMK AO2 P0001
KHFJ 220330Z AUTO 03006KT 10SM -RA SCT075 SCT080 BKN110 17/13 A3020 RMK AO2
KHFJ 220310Z AUTO 03007KT 10SM SCT075 BKN090 OVC120 17/14 A3020 RMK AO2
KHFJ 220250Z AUTO 03006KT 10SM BKN100 OVC120 17/14 A3019 RMK AO2
KHFJ 220230Z AUTO 03007KT 10SM OVC100 17/14 A3019 RMK AO2
KHFJ 220210Z AUTO 02008KT 10SM OVC110 17/15 A3019 RMK AO2
KHFJ 220150Z AUTO 03009KT 10SM SCT120 17/15 A3019 RMK AO2
KHFJ 220130Z AUTO 02007KT 10SM -DZ SCT120 17/15 A3018 RMK AO2
KHFJ 220110Z AUTO 01007KT 10SM -DZ SCT085 BKN120 17/16 A3018 RMK AO2
KHFJ 220050Z AUTO 01006KT 10SM -DZ BKN120 17/16 A3018 RMK AO2
KHFJ 220030Z AUTO 01004KT 10SM BKN120 18/16 A3017 RMK AO2
KHFJ 220010Z AUTO 01005KT 10SM -DZ SCT021 SCT065 BKN120 18/16 A3016 RMK AO2